sensor_id;sensor_type;location;lat;lon;timestamp;pressure;altitude;pressure_sealevel;temperature;humidity
79366;BME280;68833;53.160;17.920;2023-07-13T00:00:31;100350.94;;;19.23;71.91
79366;BME280;68833;53.160;17.920;2023-07-13T00:03:18;100346.09;;;19.17;71.89
79366;BME280;68833;53.160;17.920;2023-07-13T00:05:46;100343.06;;;19.13;71.94
79366;BME280;68833;53.160;17.920;2023-07-13T00:08:15;100342.63;;;19.08;71.94
79366;BME280;68833;53.160;17.920;2023-07-13T00:10:42;100344.72;;;19.05;72.01
79366;BME280;68833;53.160;17.920;2023-07-13T00:13:09;100350.96;;;19.01;72.03
79366;BME280;68833;53.160;17.920;2023-07-13T00:15:36;100352.85;;;18.99;72.21
79366;BME280;68833;53.160;17.920;2023-07-13T00:18:03;100352.02;;;18.98;72.03
79366;BME280;68833;53.160;17.920;2023-07-13T00:20:30;100351.93;;;18.96;72.04
79366;BME280;68833;53.160;17.920;2023-07-13T00:22:58;100356.00;;;18.93;71.90
79366;BME280;68833;53.160;17.920;2023-07-13T00:25:26;100359.16;;;18.90;71.90
79366;BME280;68833;53.160;17.920;2023-07-13T00:27:55;100362.09;;;18.89;71.80
79366;BME280;68833;53.160;17.920;2023-07-13T00:30:22;100363.77;;;18.86;71.80
79366;BME280;68833;53.160;17.920;2023-07-13T00:32:49;100363.90;;;18.84;71.78
79366;BME280;68833;53.160;17.920;2023-07-13T00:35:18;100368.52;;;18.80;71.74
79366;BME280;68833;53.160;17.920;2023-07-13T00:37:45;100373.06;;;18.75;71.71
79366;BME280;68833;53.160;17.920;2023-07-13T00:40:13;100373.20;;;18.71;71.88
79366;BME280;68833;53.160;17.920;2023-07-13T00:42:41;100377.52;;;18.70;71.87
79366;BME280;68833;53.160;17.920;2023-07-13T00:47:43;100389.32;;;18.65;71.76
79366;BME280;68833;53.160;17.920;2023-07-13T00:50:12;100389.99;;;18.62;71.80
79366;BME280;68833;53.160;17.920;2023-07-13T00:52:44;100393.40;;;18.58;71.78
79366;BME280;68833;53.160;17.920;2023-07-13T00:55:13;100399.02;;;18.56;71.95
79366;BME280;68833;53.160;17.920;2023-07-13T00:57:41;100408.81;;;18.56;71.87
79366;BME280;68833;53.160;17.920;2023-07-13T01:00:09;100410.13;;;18.54;72.03
79366;BME280;68833;53.160;17.920;2023-07-13T01:02:39;100415.77;;;18.51;72.15
79366;BME280;68833;53.160;17.920;2023-07-13T01:05:11;100419.27;;;18.49;72.24
79366;BME280;68833;53.160;17.920;2023-07-13T01:07:41;100414.60;;;18.46;72.14
79366;BME280;68833;53.160;17.920;2023-07-13T01:10:12;100409.63;;;18.46;72.41
79366;BME280;68833;53.160;17.920;2023-07-13T01:12:40;100410.80;;;18.44;72.45
79366;BME280;68833;53.160;17.920;2023-07-13T01:15:40;100408.59;;;18.41;72.50
79366;BME280;68833;53.160;17.920;2023-07-13T01:18:10;100401.20;;;18.40;72.55
79366;BME280;68833;53.160;17.920;2023-07-13T01:20:39;100398.97;;;18.38;72.45
79366;BME280;68833;53.160;17.920;2023-07-13T01:23:11;100393.67;;;18.36;72.43
79366;BME280;68833;53.160;17.920;2023-07-13T01:25:39;100391.76;;;18.36;72.55
79366;BME280;68833;53.160;17.920;2023-07-13T01:28:08;100392.13;;;18.35;72.52
79366;BME280;68833;53.160;17.920;2023-07-13T01:30:40;100399.16;;;18.33;72.33
79366;BME280;68833;53.160;17.920;2023-07-13T01:33:07;100401.05;;;18.31;72.41
79366;BME280;68833;53.160;17.920;2023-07-13T01:35:36;100398.89;;;18.28;72.54
79366;BME280;68833;53.160;17.920;2023-07-13T01:38:04;100399.63;;;18.23;72.51
79366;BME280;68833;53.160;17.920;2023-07-13T01:40:31;100400.80;;;18.21;72.49
79366;BME280;68833;53.160;17.920;2023-07-13T01:42:59;100401.25;;;18.19;72.45
79366;BME280;68833;53.160;17.920;2023-07-13T01:45:26;100405.23;;;18.17;72.49
79366;BME280;68833;53.160;17.920;2023-07-13T01:47:53;100409.92;;;18.15;72.44
79366;BME280;68833;53.160;17.920;2023-07-13T01:50:20;100416.75;;;18.14;72.48
79366;BME280;68833;53.160;17.920;2023-07-13T01:52:48;100424.75;;;18.10;72.44
79366;BME280;68833;53.160;17.920;2023-07-13T01:55:16;100423.42;;;18.08;72.62
79366;BME280;68833;53.160;17.920;2023-07-13T01:57:43;100416.84;;;18.08;72.75
79366;BME280;68833;53.160;17.920;2023-07-13T02:00:10;100418.85;;;18.07;72.55
79366;BME280;68833;53.160;17.920;2023-07-13T02:02:43;100411.97;;;18.06;72.68
79366;BME280;68833;53.160;17.920;2023-07-13T02:05:12;100405.48;;;18.08;72.88
79366;BME280;68833;53.160;17.920;2023-07-13T02:07:39;100401.52;;;18.09;72.90
79366;BME280;68833;53.160;17.920;2023-07-13T02:10:07;100402.42;;;18.09;72.96
79366;BME280;68833;53.160;17.920;2023-07-13T02:12:35;100402.91;;;18.10;73.00
79366;BME280;68833;53.160;17.920;2023-07-13T02:15:03;100405.16;;;18.11;73.01
79366;BME280;68833;53.160;17.920;2023-07-13T02:17:30;100399.81;;;18.11;73.07
79366;BME280;68833;53.160;17.920;2023-07-13T02:19:58;100393.94;;;18.12;73.09
79366;BME280;68833;53.160;17.920;2023-07-13T02:22:25;100393.67;;;18.14;73.04
79366;BME280;68833;53.160;17.920;2023-07-13T02:24:51;100391.00;;;18.14;72.99
79366;BME280;68833;53.160;17.920;2023-07-13T02:27:19;100385.46;;;18.14;73.17
79366;BME280;68833;53.160;17.920;2023-07-13T02:29:46;100382.98;;;18.14;72.92
79366;BME280;68833;53.160;17.920;2023-07-13T02:32:13;100385.15;;;18.13;72.77
79366;BME280;68833;53.160;17.920;2023-07-13T02:34:41;100386.83;;;18.11;72.90
79366;BME280;68833;53.160;17.920;2023-07-13T02:37:08;100386.38;;;18.10;72.95
79366;BME280;68833;53.160;17.920;2023-07-13T02:39:36;100390.00;;;18.08;73.23
79366;BME280;68833;53.160;17.920;2023-07-13T02:42:04;100395.37;;;18.07;73.19
79366;BME280;68833;53.160;17.920;2023-07-13T02:44:32;100398.21;;;18.07;72.91
79366;BME280;68833;53.160;17.920;2023-07-13T02:46:59;100394.10;;;18.08;72.85
79366;BME280;68833;53.160;17.920;2023-07-13T02:49:26;100389.63;;;18.08;73.06
79366;BME280;68833;53.160;17.920;2023-07-13T02:51:53;100388.21;;;18.09;73.28
79366;BME280;68833;53.160;17.920;2023-07-13T02:54:20;100383.95;;;18.08;73.07
79366;BME280;68833;53.160;17.920;2023-07-13T02:56:47;100386.67;;;18.07;72.71
79366;BME280;68833;53.160;17.920;2023-07-13T02:59:14;100392.98;;;18.05;73.15
79366;BME280;68833;53.160;17.920;2023-07-13T03:01:41;100390.73;;;18.03;72.90
79366;BME280;68833;53.160;17.920;2023-07-13T03:04:08;100382.49;;;18.01;72.95
79366;BME280;68833;53.160;17.920;2023-07-13T03:06:35;100387.86;;;18.00;72.90
79366;BME280;68833;53.160;17.920;2023-07-13T03:09:02;100392.39;;;17.98;72.71
79366;BME280;68833;53.160;17.920;2023-07-13T03:11:30;100382.60;;;17.99;72.66
79366;BME280;68833;53.160;17.920;2023-07-13T03:14:15;100377.99;;;17.98;72.55
79366;BME280;68833;53.160;17.920;2023-07-13T03:16:42;100383.70;;;17.98;72.81
79366;BME280;68833;53.160;17.920;2023-07-13T03:19:09;100389.52;;;17.95;73.08
79366;BME280;68833;53.160;17.920;2023-07-13T03:21:36;100388.92;;;17.92;72.68
79366;BME280;68833;53.160;17.920;2023-07-13T03:24:04;100388.98;;;17.91;72.83
79366;BME280;68833;53.160;17.920;2023-07-13T03:26:31;100394.28;;;17.91;72.59
79366;BME280;68833;53.160;17.920;2023-07-13T03:28:58;100404.59;;;17.91;72.74
79366;BME280;68833;53.160;17.920;2023-07-13T03:31:28;100410.12;;;17.90;72.81
79366;BME280;68833;53.160;17.920;2023-07-13T03:33:57;100404.71;;;17.88;72.87
79366;BME280;68833;53.160;17.920;2023-07-13T03:36:27;100402.48;;;17.86;72.99
79366;BME280;68833;53.160;17.920;2023-07-13T03:38:59;100405.56;;;17.85;73.01
79366;BME280;68833;53.160;17.920;2023-07-13T03:41:48;100406.66;;;17.84;72.81
79366;BME280;68833;53.160;17.920;2023-07-13T03:44:16;100410.77;;;17.83;72.31
79366;BME280;68833;53.160;17.920;2023-07-13T03:46:44;100413.30;;;17.83;72.72
79366;BME280;68833;53.160;17.920;2023-07-13T03:49:11;100409.42;;;17.82;72.87
79366;BME280;68833;53.160;17.920;2023-07-13T03:51:39;100409.58;;;17.83;72.65
79366;BME280;68833;53.160;17.920;2023-07-13T03:54:06;100411.86;;;17.83;72.79
79366;BME280;68833;53.160;17.920;2023-07-13T03:56:33;100416.58;;;17.85;72.76
79366;BME280;68833;53.160;17.920;2023-07-13T03:59:00;100419.81;;;17.84;72.64
79366;BME280;68833;53.160;17.920;2023-07-13T04:01:30;100423.04;;;17.83;72.39
79366;BME280;68833;53.160;17.920;2023-07-13T04:03:57;100425.45;;;17.81;72.43
79366;BME280;68833;53.160;17.920;2023-07-13T04:06:30;100429.63;;;17.79;72.66
79366;BME280;68833;53.160;17.920;2023-07-13T04:08:59;100430.23;;;17.77;72.76
79366;BME280;68833;53.160;17.920;2023-07-13T04:11:29;100430.58;;;17.78;72.60
79366;BME280;68833;53.160;17.920;2023-07-13T04:13:58;100432.87;;;17.78;72.70
79366;BME280;68833;53.160;17.920;2023-07-13T04:16:25;100432.10;;;17.79;72.74
79366;BME280;68833;53.160;17.920;2023-07-13T04:18:52;100428.00;;;17.79;72.70
79366;BME280;68833;53.160;17.920;2023-07-13T04:21:21;100419.88;;;17.82;72.94
79366;BME280;68833;53.160;17.920;2023-07-13T04:23:48;100413.96;;;17.84;72.91
79366;BME280;68833;53.160;17.920;2023-07-13T04:26:15;100415.98;;;17.86;72.87
79366;BME280;68833;53.160;17.920;2023-07-13T04:28:42;100418.10;;;17.91;73.11
79366;BME280;68833;53.160;17.920;2023-07-13T04:31:10;100428.32;;;17.94;73.25
79366;BME280;68833;53.160;17.920;2023-07-13T04:33:37;100438.02;;;17.95;72.75
79366;BME280;68833;53.160;17.920;2023-07-13T04:36:05;100438.20;;;17.95;72.95
79366;BME280;68833;53.160;17.920;2023-07-13T04:38:32;100443.34;;;17.95;72.93
79366;BME280;68833;53.160;17.920;2023-07-13T04:41:02;100442.87;;;17.98;73.16
79366;BME280;68833;53.160;17.920;2023-07-13T04:43:30;100446.78;;;18.02;73.44
79366;BME280;68833;53.160;17.920;2023-07-13T04:46:03;100449.98;;;18.07;73.06
79366;BME280;68833;53.160;17.920;2023-07-13T04:48:30;100458.27;;;18.08;73.26
79366;BME280;68833;53.160;17.920;2023-07-13T04:50:58;100466.73;;;18.09;73.22
79366;BME280;68833;53.160;17.920;2023-07-13T04:53:25;100468.46;;;18.10;73.16
79366;BME280;68833;53.160;17.920;2023-07-13T04:55:53;100468.41;;;18.11;73.32
79366;BME280;68833;53.160;17.920;2023-07-13T04:58:20;100471.61;;;18.15;73.21
79366;BME280;68833;53.160;17.920;2023-07-13T05:00:48;100477.73;;;18.22;73.13
79366;BME280;68833;53.160;17.920;2023-07-13T05:03:15;100485.08;;;18.29;73.01
79366;BME280;68833;53.160;17.920;2023-07-13T05:05:43;100483.00;;;18.35;73.43
79366;BME280;68833;53.160;17.920;2023-07-13T05:08:10;100486.71;;;18.40;73.04
79366;BME280;68833;53.160;17.920;2023-07-13T05:10:37;100483.47;;;18.45;72.68
79366;BME280;68833;53.160;17.920;2023-07-13T05:13:04;100479.83;;;18.51;72.61
79366;BME280;68833;53.160;17.920;2023-07-13T05:15:32;100479.05;;;18.56;72.44
79366;BME280;68833;53.160;17.920;2023-07-13T05:17:59;100479.77;;;18.60;72.45
79366;BME280;68833;53.160;17.920;2023-07-13T05:20:26;100479.02;;;18.64;72.35
79366;BME280;68833;53.160;17.920;2023-07-13T05:22:53;100475.55;;;18.66;72.37
79366;BME280;68833;53.160;17.920;2023-07-13T05:25:20;100478.59;;;18.70;72.07
79366;BME280;68833;53.160;17.920;2023-07-13T05:27:47;100480.05;;;18.77;71.94
79366;BME280;68833;53.160;17.920;2023-07-13T05:30:15;100482.69;;;18.85;71.83
79366;BME280;68833;53.160;17.920;2023-07-13T05:32:42;100487.04;;;18.92;71.75
79366;BME280;68833;53.160;17.920;2023-07-13T05:35:09;100488.61;;;18.96;71.58
79366;BME280;68833;53.160;17.920;2023-07-13T05:37:37;100496.63;;;19.00;71.29
79366;BME280;68833;53.160;17.920;2023-07-13T05:40:04;100504.04;;;19.01;70.86
79366;BME280;68833;53.160;17.920;2023-07-13T05:42:32;100502.18;;;19.03;71.03
79366;BME280;68833;53.160;17.920;2023-07-13T05:44:59;100494.52;;;19.11;70.86
79366;BME280;68833;53.160;17.920;2023-07-13T05:47:25;100491.39;;;19.17;70.59
79366;BME280;68833;53.160;17.920;2023-07-13T05:49:53;100484.45;;;19.28;70.33
79366;BME280;68833;53.160;17.920;2023-07-13T05:52:20;100478.77;;;19.38;69.96
79366;BME280;68833;53.160;17.920;2023-07-13T05:54:47;100485.98;;;19.48;70.18
79366;BME280;68833;53.160;17.920;2023-07-13T05:57:14;100492.69;;;19.52;70.61
79366;BME280;68833;53.160;17.920;2023-07-13T05:59:41;100493.11;;;19.54;70.22
79366;BME280;68833;53.160;17.920;2023-07-13T06:02:09;100491.50;;;19.58;70.53
79366;BME280;68833;53.160;17.920;2023-07-13T06:04:37;100494.65;;;19.66;70.30
79366;BME280;68833;53.160;17.920;2023-07-13T06:07:04;100495.70;;;19.74;70.22
79366;BME280;68833;53.160;17.920;2023-07-13T06:09:31;100494.77;;;19.79;70.00
79366;BME280;68833;53.160;17.920;2023-07-13T06:11:58;100496.52;;;19.87;69.95
79366;BME280;68833;53.160;17.920;2023-07-13T06:14:25;100493.57;;;19.92;69.45
79366;BME280;68833;53.160;17.920;2023-07-13T06:16:52;100491.48;;;19.98;69.56
79366;BME280;68833;53.160;17.920;2023-07-13T06:19:19;100491.30;;;20.05;69.56
79366;BME280;68833;53.160;17.920;2023-07-13T06:21:46;100492.44;;;20.14;69.72
79366;BME280;68833;53.160;17.920;2023-07-13T06:24:13;100494.67;;;20.23;69.37
79366;BME280;68833;53.160;17.920;2023-07-13T06:26:39;100501.26;;;20.30;69.31
79366;BME280;68833;53.160;17.920;2023-07-13T06:29:06;100505.00;;;20.36;69.21
79366;BME280;68833;53.160;17.920;2023-07-13T06:31:33;100504.70;;;20.42;69.45
79366;BME280;68833;53.160;17.920;2023-07-13T06:34:00;100501.81;;;20.50;69.23
79366;BME280;68833;53.160;17.920;2023-07-13T06:36:27;100497.54;;;20.56;68.69
79366;BME280;68833;53.160;17.920;2023-07-13T06:38:55;100498.87;;;20.61;68.84
79366;BME280;68833;53.160;17.920;2023-07-13T06:41:22;100500.98;;;20.69;68.55
79366;BME280;68833;53.160;17.920;2023-07-13T06:43:49;100495.58;;;20.74;68.27
79366;BME280;68833;53.160;17.920;2023-07-13T06:46:16;100495.46;;;20.79;68.31
79366;BME280;68833;53.160;17.920;2023-07-13T06:48:43;100497.65;;;20.81;68.09
79366;BME280;68833;53.160;17.920;2023-07-13T06:51:10;100500.86;;;20.81;67.66
79366;BME280;68833;53.160;17.920;2023-07-13T06:53:37;100503.95;;;20.84;67.23
79366;BME280;68833;53.160;17.920;2023-07-13T06:56:03;100507.68;;;20.84;67.06
79366;BME280;68833;53.160;17.920;2023-07-13T06:58:31;100515.77;;;20.83;66.76
79366;BME280;68833;53.160;17.920;2023-07-13T07:00:57;100516.55;;;20.82;67.12
79366;BME280;68833;53.160;17.920;2023-07-13T07:03:24;100514.34;;;20.83;67.22
79366;BME280;68833;53.160;17.920;2023-07-13T07:05:52;100512.14;;;20.87;66.76
79366;BME280;68833;53.160;17.920;2023-07-13T07:08:18;100515.21;;;20.93;66.65
79366;BME280;68833;53.160;17.920;2023-07-13T07:10:45;100512.45;;;20.98;66.99
79366;BME280;68833;53.160;17.920;2023-07-13T07:13:13;100516.93;;;21.04;66.93
79366;BME280;68833;53.160;17.920;2023-07-13T07:15:40;100520.32;;;21.07;67.05
79366;BME280;68833;53.160;17.920;2023-07-13T07:18:07;100527.85;;;21.10;66.65
79366;BME280;68833;53.160;17.920;2023-07-13T07:20:34;100529.59;;;21.11;66.07
79366;BME280;68833;53.160;17.920;2023-07-13T07:23:01;100523.89;;;21.11;66.23
79366;BME280;68833;53.160;17.920;2023-07-13T07:25:28;100527.64;;;21.17;65.61
79366;BME280;68833;53.160;17.920;2023-07-13T07:27:58;100531.92;;;21.24;65.82
79366;BME280;68833;53.160;17.920;2023-07-13T07:30:25;100527.60;;;21.33;65.65
79366;BME280;68833;53.160;17.920;2023-07-13T07:32:52;100523.80;;;21.41;65.17
79366;BME280;68833;53.160;17.920;2023-07-13T07:35:19;100523.36;;;21.49;65.24
79366;BME280;68833;53.160;17.920;2023-07-13T07:37:46;100519.63;;;21.54;65.27
79366;BME280;68833;53.160;17.920;2023-07-13T07:40:13;100517.96;;;21.65;64.80
79366;BME280;68833;53.160;17.920;2023-07-13T07:42:40;100515.70;;;21.74;65.16
79366;BME280;68833;53.160;17.920;2023-07-13T07:45:07;100518.20;;;21.86;64.84
79366;BME280;68833;53.160;17.920;2023-07-13T07:47:34;100516.88;;;21.96;64.64
79366;BME280;68833;53.160;17.920;2023-07-13T07:50:01;100515.39;;;22.06;64.44
79366;BME280;68833;53.160;17.920;2023-07-13T07:52:28;100514.88;;;22.15;63.99
79366;BME280;68833;53.160;17.920;2023-07-13T07:54:55;100519.36;;;22.20;63.54
79366;BME280;68833;53.160;17.920;2023-07-13T07:57:22;100520.19;;;22.28;63.08
79366;BME280;68833;53.160;17.920;2023-07-13T07:59:49;100518.38;;;22.31;62.34
79366;BME280;68833;53.160;17.920;2023-07-13T08:02:16;100521.91;;;22.38;61.70
79366;BME280;68833;53.160;17.920;2023-07-13T08:04:43;100525.30;;;22.44;61.36
79366;BME280;68833;53.160;17.920;2023-07-13T08:07:10;100524.58;;;22.50;61.41
79366;BME280;68833;53.160;17.920;2023-07-13T08:09:37;100527.34;;;22.57;61.00
79366;BME280;68833;53.160;17.920;2023-07-13T08:12:04;100525.21;;;22.66;61.37
79366;BME280;68833;53.160;17.920;2023-07-13T08:14:32;100526.06;;;22.75;60.26
79366;BME280;68833;53.160;17.920;2023-07-13T08:16:59;100524.45;;;22.84;60.02
79366;BME280;68833;53.160;17.920;2023-07-13T08:19:26;100523.33;;;22.93;59.86
79366;BME280;68833;53.160;17.920;2023-07-13T08:21:53;100522.96;;;23.02;59.63
79366;BME280;68833;53.160;17.920;2023-07-13T08:24:22;100525.02;;;23.12;58.51
79366;BME280;68833;53.160;17.920;2023-07-13T08:26:51;100518.88;;;23.16;57.73
79366;BME280;68833;53.160;17.920;2023-07-13T08:29:18;100516.85;;;23.22;57.56
79366;BME280;68833;53.160;17.920;2023-07-13T08:31:45;100511.10;;;23.30;56.46
79366;BME280;68833;53.160;17.920;2023-07-13T08:34:12;100509.59;;;23.37;57.41
79366;BME280;68833;53.160;17.920;2023-07-13T08:36:41;100510.08;;;23.49;57.41
79366;BME280;68833;53.160;17.920;2023-07-13T08:39:08;100505.85;;;23.53;56.23
79366;BME280;68833;53.160;17.920;2023-07-13T08:41:35;100506.75;;;23.48;54.60
79366;BME280;68833;53.160;17.920;2023-07-13T08:44:07;100509.27;;;23.37;54.25
79366;BME280;68833;53.160;17.920;2023-07-13T08:46:44;100516.90;;;23.24;54.36
79366;BME280;68833;53.160;17.920;2023-07-13T08:49:16;100513.93;;;23.14;54.72
79366;BME280;68833;53.160;17.920;2023-07-13T08:51:48;100517.45;;;23.07;54.61
79366;BME280;68833;53.160;17.920;2023-07-13T08:54:35;100519.73;;;23.04;54.71
79366;BME280;68833;53.160;17.920;2023-07-13T08:57:14;100519.84;;;23.08;54.91
79366;BME280;68833;53.160;17.920;2023-07-13T08:59:42;100523.48;;;23.11;54.64
79366;BME280;68833;53.160;17.920;2023-07-13T09:02:46;100519.67;;;23.12;54.53
79366;BME280;68833;53.160;17.920;2023-07-13T09:05:26;100520.54;;;23.12;54.56
79366;BME280;68833;53.160;17.920;2023-07-13T09:08:19;100523.90;;;23.13;54.80
79366;BME280;68833;53.160;17.920;2023-07-13T09:11:00;100517.14;;;23.15;54.39
79366;BME280;68833;53.160;17.920;2023-07-13T09:13:43;100520.45;;;23.16;54.17
79366;BME280;68833;53.160;17.920;2023-07-13T09:16:17;100512.41;;;23.19;54.05
79366;BME280;68833;53.160;17.920;2023-07-13T09:18:47;100506.87;;;23.27;53.77
79366;BME280;68833;53.160;17.920;2023-07-13T09:21:20;100507.03;;;23.38;53.16
79366;BME280;68833;53.160;17.920;2023-07-13T09:23:52;100510.63;;;23.46;53.18
79366;BME280;68833;53.160;17.920;2023-07-13T09:26:23;100513.84;;;23.52;52.86
79366;BME280;68833;53.160;17.920;2023-07-13T09:28:58;100509.61;;;23.59;52.72
79366;BME280;68833;53.160;17.920;2023-07-13T09:31:33;100508.11;;;23.66;52.83
79366;BME280;68833;53.160;17.920;2023-07-13T09:34:01;100504.98;;;23.69;52.37
79366;BME280;68833;53.160;17.920;2023-07-13T09:36:33;100503.55;;;23.71;52.27
79366;BME280;68833;53.160;17.920;2023-07-13T09:44:18;100511.60;;;23.94;52.32
79366;BME280;68833;53.160;17.920;2023-07-13T09:46:55;100512.62;;;24.05;51.96
79366;BME280;68833;53.160;17.920;2023-07-13T09:49:27;100506.73;;;24.16;51.88
79366;BME280;68833;53.160;17.920;2023-07-13T09:52:00;100505.56;;;24.25;51.28
79366;BME280;68833;53.160;17.920;2023-07-13T09:54:29;100501.61;;;24.33;50.43
79366;BME280;68833;53.160;17.920;2023-07-13T09:56:57;100498.88;;;24.43;50.30
79366;BME280;68833;53.160;17.920;2023-07-13T09:59:40;100495.15;;;24.48;48.87
79366;BME280;68833;53.160;17.920;2023-07-13T10:03:55;100492.27;;;24.61;48.66
79366;BME280;68833;53.160;17.920;2023-07-13T10:06:22;100487.55;;;24.72;48.10
79366;BME280;68833;53.160;17.920;2023-07-13T10:08:50;100495.91;;;24.86;47.34
79366;BME280;68833;53.160;17.920;2023-07-13T10:11:27;100496.66;;;24.98;47.58
79366;BME280;68833;53.160;17.920;2023-07-13T10:13:59;100500.63;;;25.07;46.89
79366;BME280;68833;53.160;17.920;2023-07-13T10:16:30;100502.42;;;25.13;46.50
79366;BME280;68833;53.160;17.920;2023-07-13T10:19:05;100502.80;;;25.15;45.54
79366;BME280;68833;53.160;17.920;2023-07-13T10:21:50;100499.89;;;25.15;44.83
79366;BME280;68833;53.160;17.920;2023-07-13T10:24:21;100497.94;;;25.17;44.72
79366;BME280;68833;53.160;17.920;2023-07-13T10:27:00;100499.76;;;25.29;44.61
79366;BME280;68833;53.160;17.920;2023-07-13T10:29:29;100496.75;;;25.46;43.73
79366;BME280;68833;53.160;17.920;2023-07-13T10:31:59;100501.36;;;25.54;43.18
79366;BME280;68833;53.160;17.920;2023-07-13T10:34:25;100501.80;;;25.53;42.61
79366;BME280;68833;53.160;17.920;2023-07-13T10:36:53;100498.25;;;25.52;42.47
79366;BME280;68833;53.160;17.920;2023-07-13T10:39:26;100499.91;;;25.57;42.53
79366;BME280;68833;53.160;17.920;2023-07-13T10:41:57;100501.25;;;25.70;42.51
79366;BME280;68833;53.160;17.920;2023-07-13T10:44:28;100495.94;;;25.73;41.74
79366;BME280;68833;53.160;17.920;2023-07-13T10:47:00;100502.46;;;25.78;41.76
79366;BME280;68833;53.160;17.920;2023-07-13T10:49:29;100495.86;;;25.77;41.64
79366;BME280;68833;53.160;17.920;2023-07-13T10:51:57;100503.48;;;25.71;42.73
79366;BME280;68833;53.160;17.920;2023-07-13T10:54:31;100504.01;;;25.69;43.52
79366;BME280;68833;53.160;17.920;2023-07-13T10:57:19;100502.73;;;25.71;42.64
79366;BME280;68833;53.160;17.920;2023-07-13T11:00:08;100498.59;;;25.69;41.97
79366;BME280;68833;53.160;17.920;2023-07-13T11:02:35;100493.61;;;25.71;41.05
79366;BME280;68833;53.160;17.920;2023-07-13T11:05:28;100495.98;;;25.78;41.21
79366;BME280;68833;53.160;17.920;2023-07-13T11:08:03;100495.06;;;25.87;41.27
79366;BME280;68833;53.160;17.920;2023-07-13T11:10:57;100495.52;;;25.95;41.86
79366;BME280;68833;53.160;17.920;2023-07-13T11:18:45;100502.00;;;26.33;41.61
79366;BME280;68833;53.160;17.920;2023-07-13T11:21:14;100505.30;;;26.46;40.89
79366;BME280;68833;53.160;17.920;2023-07-13T11:23:44;100508.33;;;26.54;40.18
79366;BME280;68833;53.160;17.920;2023-07-13T11:30:08;100502.42;;;26.74;39.78
79366;BME280;68833;53.160;17.920;2023-07-13T11:32:35;100501.77;;;26.78;39.79
79366;BME280;68833;53.160;17.920;2023-07-13T11:35:02;100499.89;;;26.81;39.93
79366;BME280;68833;53.160;17.920;2023-07-13T11:37:29;100500.38;;;26.82;39.46
79366;BME280;68833;53.160;17.920;2023-07-13T11:39:59;100509.86;;;26.71;39.00
79366;BME280;68833;53.160;17.920;2023-07-13T11:42:25;100508.80;;;26.61;39.37
79366;BME280;68833;53.160;17.920;2023-07-13T11:44:53;100501.96;;;26.61;39.45
79366;BME280;68833;53.160;17.920;2023-07-13T11:47:22;100502.57;;;26.67;39.91
79366;BME280;68833;53.160;17.920;2023-07-13T11:49:53;100502.13;;;26.71;39.88
79366;BME280;68833;53.160;17.920;2023-07-13T11:52:34;100505.87;;;26.69;39.88
79366;BME280;68833;53.160;17.920;2023-07-13T11:55:13;100500.70;;;26.68;40.41
79366;BME280;68833;53.160;17.920;2023-07-13T11:57:47;100495.52;;;26.68;40.53
79366;BME280;68833;53.160;17.920;2023-07-13T12:00:18;100497.98;;;26.62;39.48
79366;BME280;68833;53.160;17.920;2023-07-13T12:02:50;100503.52;;;26.53;39.64
79366;BME280;68833;53.160;17.920;2023-07-13T12:05:19;100507.79;;;26.47;39.49
79366;BME280;68833;53.160;17.920;2023-07-13T12:07:47;100505.17;;;26.36;39.17
79366;BME280;68833;53.160;17.920;2023-07-13T12:10:28;100501.13;;;26.26;39.30
79366;BME280;68833;53.160;17.920;2023-07-13T12:13:02;100504.48;;;26.16;39.09
79366;BME280;68833;53.160;17.920;2023-07-13T12:15:49;100498.48;;;26.02;39.14
79366;BME280;68833;53.160;17.920;2023-07-13T12:18:20;100496.77;;;25.96;39.21
79366;BME280;68833;53.160;17.920;2023-07-13T12:20:48;100498.30;;;25.95;39.70
79366;BME280;68833;53.160;17.920;2023-07-13T12:23:28;100504.42;;;25.92;39.67
79366;BME280;68833;53.160;17.920;2023-07-13T12:25:57;100501.86;;;25.88;39.49
79366;BME280;68833;53.160;17.920;2023-07-13T12:31:01;100503.41;;;25.84;40.08
79366;BME280;68833;53.160;17.920;2023-07-13T12:33:28;100502.88;;;25.87;39.91
79366;BME280;68833;53.160;17.920;2023-07-13T12:35:55;100501.36;;;25.85;39.84
79366;BME280;68833;53.160;17.920;2023-07-13T12:38:24;100498.13;;;25.85;39.58
79366;BME280;68833;53.160;17.920;2023-07-13T12:40:52;100494.14;;;25.85;39.83
79366;BME280;68833;53.160;17.920;2023-07-13T12:43:22;100491.08;;;25.83;39.93
79366;BME280;68833;53.160;17.920;2023-07-13T12:46:02;100491.80;;;25.79;39.53
79366;BME280;68833;53.160;17.920;2023-07-13T12:48:29;100486.73;;;25.73;39.92
79366;BME280;68833;53.160;17.920;2023-07-13T12:50:56;100490.07;;;25.70;40.06
79366;BME280;68833;53.160;17.920;2023-07-13T12:53:30;100494.70;;;25.66;40.36
79366;BME280;68833;53.160;17.920;2023-07-13T12:56:02;100494.89;;;25.61;40.14
79366;BME280;68833;53.160;17.920;2023-07-13T12:58:39;100491.84;;;25.56;40.04
79366;BME280;68833;53.160;17.920;2023-07-13T13:01:09;100491.92;;;25.53;40.09
79366;BME280;68833;53.160;17.920;2023-07-13T13:03:40;100493.45;;;25.49;39.98
79366;BME280;68833;53.160;17.920;2023-07-13T13:06:33;100490.54;;;25.45;39.84
79366;BME280;68833;53.160;17.920;2023-07-13T13:09:02;100493.27;;;25.39;39.55
79366;BME280;68833;53.160;17.920;2023-07-13T13:11:31;100490.27;;;25.36;39.68
79366;BME280;68833;53.160;17.920;2023-07-13T13:13:58;100487.44;;;25.33;40.20